Flight Track Log - Related Links

Times and Time Zones

All times are in EDT time to prevent confusion due to time zone crossing. See the LV-CSD flight status page for this flight to view local times or setup timezone preferences in your user account.

Time Position Orientation Groundspeed Altitude Reporting Facility
EDT Latitude Longitude Course Direction KTS MPH feet Rate Location/Type
Sat 07:41:00 AM -34.6999 -58.5838 340° North  Level FlightAware Approximate
Sat 07:42:00 AM -34.5762 -58.6387 340° North  Level FlightAware Approximate
Sat 07:43:00 AM -34.4526 -58.6934 340° North  Level FlightAware Approximate
Sat 07:44:00 AM -34.3289 -58.7479 340° North  Level FlightAware Approximate
Sat 07:45:00 AM -34.2052 -58.8023 340° North  Level FlightAware Approximate
Sat 07:46:00 AM -34.0815 -58.8565 340° North  Level FlightAware Approximate
Sat 07:47:00 AM -33.9578 -58.9106 340° North  Level FlightAware Approximate
Sat 07:48:00 AM -33.8340 -58.9645 340° North  Level FlightAware Approximate
Sat 07:48:38 AM -34.8270 -58.5110 340° North 172 198 400  Level FlightAware ADS-B
Sat 07:49:00 AM -33.7102 -59.0183 340° North  Level FlightAware Approximate
Sat 07:49:08 AM -34.8340 -58.4830 107° East 171 197 1,100  Level FlightAware ADS-B
Sat 07:49:22 AM -34.8420 -58.4740 137° Southeast 163 188 1,500 1,333 Climbing FlightAware ADS-B
Sat 07:49:44 AM -34.8520 -58.4580 127° Southeast 177 204 1,900 792 Climbing FlightAware ADS-B
Sat 07:50:15 AM -34.8390 -58.4320 59° Northeast 206 237 2,200 585 Climbing FlightAware ADS-B
Sat 07:50:25 AM -34.8290 -58.4290 14° North 212 244 2,300 837 Climbing FlightAware ADS-B
Sat 07:50:58 AM -34.7940 -58.4360 351° North 244 281 2,800 1,279 Climbing FlightAware ADS-B
Sat 07:51:26 AM -34.7630 -58.4500 340° North 262 302 3,600 2,069 Climbing FlightAware ADS-B
Sat 07:51:56 AM -34.7310 -58.4710 332° Northwest 263 303 4,800 2,087 Climbing FlightAware ADS-B
Sat 07:52:12 AM -34.7130 -58.4820 333° Northwest 264 304 5,200 2,429 Climbing FlightAware ADS-B
Sat 07:52:38 AM -34.6840 -58.5000 333° Northwest 262 302 6,500 3,222 Climbing FlightAware ADS-B
Sat 07:53:06 AM -34.6570 -58.5170 333° Northwest 243 280 8,100 3,167 Climbing FlightAware ADS-B
Sat 07:53:14 AM -34.6480 -58.5230 331° Northwest 245 282 8,400 1,784 Climbing FlightAware ADS-B
Sat 07:53:43 AM -34.6180 -58.5420 332° Northwest 260 299 9,200 1,853 Climbing FlightAware ADS-B
Sat 07:54:22 AM -34.5740 -58.5700 332° Northwest 275 316 10,500 1,407 Climbing FlightAware ADS-B
Sat 07:55:04 AM -34.5230 -58.6020 333° Northwest 315 362 11,100 900 Climbing FlightAware ADS-B
Sat 07:55:42 AM -34.4720 -58.6340 333° Northwest 347 399 11,700 1,538 Climbing FlightAware ADS-B
Sat 07:56:22 AM -34.4130 -58.6700 333° Northwest 353 406 13,100 2,593 Climbing FlightAware ADS-B
Sat 07:57:03 AM -34.3560 -58.7060 332° Northwest 336 387 15,200 2,550 Climbing FlightAware ADS-B
Sat 07:57:42 AM -34.3010 -58.7400 333° Northwest 344 396 16,500 1,807 Climbing FlightAware ADS-B
Sat 07:58:26 AM -34.2370 -58.7800 333° Northwest 356 410 17,700 1,600 Climbing FlightAware ADS-B
Sat 07:59:12 AM -34.1680 -58.8230 333° Northwest 369 425 18,900 1,744 Climbing FlightAware ADS-B
Sat 07:59:52 AM -34.1070 -58.8610 333° Northwest 373 429 20,200 1,800 Climbing FlightAware ADS-B
Sat 08:00:12 AM -34.0760 -58.8810 332° Northwest 376 433 20,700 1,721 Climbing FlightAware ADS-B
Sat 08:01:54 AM -33.9190 -58.9840 331° Northwest 376 433 23,700 1,562 Climbing FlightAware ADS-B
Sat 08:02:38 AM -33.8530 -59.0320 329° Northwest 386 444 24,500 1,047 Climbing FlightAware ADS-B
Sat 08:03:20 AM -33.7870 -59.0800 329° Northwest 396 456 25,200 988 Climbing FlightAware ADS-B
Sat 08:04:03 AM -33.7200 -59.1290 329° Northwest 404 465 25,900 1,037 Climbing FlightAware ADS-B
Sat 08:04:41 AM -33.6590 -59.1740 328° Northwest 409 471 26,600 1,286 Climbing FlightAware ADS-B
Sat 08:05:27 AM -33.5840 -59.2280 329° Northwest 406 467 27,700 1,605 Climbing FlightAware ADS-B
Sat 08:06:07 AM -33.5200 -59.2740 329° Northwest 399 459 28,900 1,390 Climbing FlightAware ADS-B
Sat 08:06:49 AM -33.4540 -59.3220 329° Northwest 403 464 29,600 1,024 Climbing FlightAware ADS-B
Sat 08:07:29 AM -33.3890 -59.3690 329° Northwest 405 466 30,300 1,231 Climbing FlightAware ADS-B
Sat 08:08:07 AM -33.3280 -59.4120 329° Northwest 400 460 31,200 1,342 Climbing FlightAware ADS-B
Sat 08:08:45 AM -33.2690 -59.4550 329° Northwest 396 456 32,000 1,098 Climbing FlightAware ADS-B
Sat 08:09:29 AM -33.1990 -59.5050 329° Northwest 395 455 32,700 1,159 Climbing FlightAware ADS-B
Sat 08:10:13 AM -33.1320 -59.5530 329° Northwest 388 447 33,700 929 Climbing FlightAware ADS-B
Sat 08:10:53 AM -33.0700 -59.5980 329° Northwest 387 445 34,000 184 Climbing FlightAware ADS-B
Sat 08:11:51 AM -32.9800 -59.6620 329° Northwest 387 445 34,000  Level FlightAware ADS-B
Sat 08:12:31 AM -32.9190 -59.7050 329° Northwest 385 443 34,000  Level FlightAware ADS-B
Sat 08:13:13 AM -32.8550 -59.7510 329° Northwest 384 442 34,000  Level FlightAware ADS-B
Sat 08:13:56 AM -32.7970 -59.7920 329° Northwest 385 443 34,000  Level FlightAware ADS-B
Sat 08:14:32 AM -32.7350 -59.8360 329° Northwest 385 443 34,000  Level FlightAware ADS-B
Sat 08:15:23 AM -32.6690 -59.8830 329° Northwest 385 443 34,000  Level FlightAware ADS-B
Sat 08:16:04 AM -32.5940 -59.9350 330° Northwest 386 444 34,000  Level FlightAware ADS-B
Sat 08:16:43 AM -32.5330 -59.9790 329° Northwest 386 444 34,000  Level FlightAware ADS-B
Sat 08:17:39 AM -32.4470 -60.0390 330° Northwest 386 444 34,000  Level FlightAware ADS-B
Sat 08:18:19 AM -32.3850 -60.0830 329° Northwest 387 445 34,000  Level FlightAware ADS-B
Sat 08:19:05 AM -32.3150 -60.1320 329° Northwest 386 444 34,000  Level FlightAware ADS-B
Sat 08:19:49 AM -32.2480 -60.1790 329° Northwest 387 445 34,000  Level FlightAware ADS-B
Sat 08:20:35 AM -32.1820 -60.2250 329° Northwest 387 445 34,000  Level FlightAware ADS-B
Sat 08:21:17 AM -32.1110 -60.2750 329° Northwest 388 447 34,000  Level FlightAware ADS-B
Sat 08:21:55 AM -32.0520 -60.3160 329° Northwest 386 444 34,000  Level FlightAware ADS-B
Sat 08:22:52 AM -31.9770 -60.3680 330° Northwest 385 443 34,000  Level FlightAware ADS-B
Sat 08:23:47 AM -31.8910 -60.4290 329° Northwest 384 442 34,000  Level FlightAware ADS-B
Sat 08:24:23 AM -31.8440 -60.4620 329° Northwest 384 442 34,000  Level FlightAware ADS-B
Sat 08:25:23 AM -31.7660 -60.5160 330° Northwest 384 442 34,000  Level FlightAware ADS-B
Sat 08:25:57 AM -31.7220 -60.5480 328° Northwest 384 442 34,000  Level FlightAware ADS-B
Sat 08:26:57 AM -31.6450 -60.6020 329° Northwest 384 442 34,000  Level FlightAware ADS-B
Sat 08:27:31 AM -31.6010 -60.6330 329° Northwest 384 442 34,000  Level FlightAware ADS-B
Sat 08:28:20 AM -31.5370 -60.6780 329° Northwest 384 442 34,000  Level FlightAware ADS-B
Sat 08:28:57 AM -31.4890 -60.7120 329° Northwest 384 442 34,000  Level FlightAware ADS-B
Sat 08:29:58 AM -31.4100 -60.7680 329° Northwest 384 442 34,000  Level FlightAware ADS-B
Sat 08:30:35 AM -31.3630 -60.8010 329° Northwest 384 442 34,000  Level FlightAware ADS-B
Sat 08:31:22 AM -31.3020 -60.8440 329° Northwest 384 442 34,000  Level FlightAware ADS-B
Sat 08:31:58 AM -31.2550 -60.8770 329° Northwest 384 442 34,000  Level FlightAware ADS-B
Sat 08:32:45 AM -31.1940 -60.9200 329° Northwest 384 442 34,000  Level FlightAware ADS-B
Sat 08:35:00 AM -30.9160 -61.0391 340° North  Level Estimated
Sat 08:35:53 AM -30.7840 -61.2570 340° North 393 452 34,000  Level FlightAware ADS-B
Sat 08:36:00 AM -30.7924 -61.0918 340° North  Level Estimated
Sat 08:36:36 AM -30.7230 -61.3020 328° Northwest 394 453 34,000  Level FlightAware ADS-B
Sat 08:37:10 AM -30.6790 -61.3360 326° Northwest 394 453 34,000  Level FlightAware ADS-B
Sat 08:37:41 AM -30.6130 -61.3780 331° Northwest 409 471 34,000  Level FlightAware ADS-B
Sat 08:38:29 AM -30.5220 -61.3980 349° North 424 488 34,000  Level FlightAware ADS-B
Sat 08:39:09 AM -30.4460 -61.4130 350° North 422 486 34,000  Level FlightAware ADS-B
Sat 08:39:50 AM -30.3670 -61.4290 350° North 424 488 34,000  Level FlightAware ADS-B
Sat 08:40:31 AM -30.2970 -61.4430 350° North 424 488 34,000  Level FlightAware ADS-B
Sat 08:41:22 AM -30.1950 -61.4630 350° North 424 488 34,000  Level FlightAware ADS-B
Sat 08:41:59 AM -30.1350 -61.4760 349° North 424 488 34,000  Level FlightAware ADS-B
Sat 08:42:35 AM -30.0760 -61.4880 350° North 424 488 34,000  Level FlightAware ADS-B
Sat 08:43:22 AM -29.9980 -61.5030 351° North 424 488 34,000  Level FlightAware ADS-B
Sat 08:43:59 AM -29.9380 -61.5160 349° North 424 488 34,000  Level FlightAware ADS-B
Sat 08:44:47 AM -29.8590 -61.5320 350° North 424 488 34,000  Level FlightAware ADS-B
Sat 08:45:51 AM -29.7540 -61.5530 350° North 424 488 34,000  Level FlightAware ADS-B
Sat 08:46:39 AM -29.6750 -61.5690 350° North 424 488 34,000  Level FlightAware ADS-B
Sat 08:47:24 AM -29.6010 -61.5840 350° North 424 488 34,000  Level FlightAware ADS-B
Sat 08:48:00 AM -29.5420 -61.5960 350° North 424 488 34,000  Level FlightAware ADS-B
Sat 08:48:35 AM -29.4840 -61.6080 350° North 424 488 34,000  Level FlightAware ADS-B
Sat 08:49:14 AM -29.4200 -61.6210 350° North 424 488 34,000  Level FlightAware ADS-B
Sat 08:50:02 AM -29.3420 -61.6370 350° North 424 488 34,000  Level FlightAware ADS-B
Sat 08:50:36 AM -29.2860 -61.6480 350° North 424 488 34,000 15 Level FlightAware ADS-B
Sat 08:53:00 AM -28.9889 -61.7707 340° North  Level Estimated
Sat 08:54:00 AM -28.8650 -61.8216 340° North  Level Estimated
Sat 08:55:00 AM -28.7412 -61.8723 340° North  Level Estimated
Sat 08:56:00 AM -28.6173 -61.9230 340° North  Level Estimated
Sat 08:57:00 AM -28.4934 -61.9735 340° North  Level Estimated
Sat 08:58:00 AM -28.3695 -62.0240 340° North  Level Estimated
Sat 08:59:00 AM -28.2456 -62.0743 340° North  Level Estimated
Sat 09:00:00 AM -28.1216 -62.1245 340° North  Level Estimated
Sat 09:01:00 AM -27.9977 -62.1745 340° North  Level Estimated
Sat 09:02:00 AM -27.8737 -62.2245 340° North  Level Estimated
Sat 09:03:00 AM -27.7497 -62.2743 340° North  Level Estimated
Sat 09:04:00 AM -27.6256 -62.3241 340° North  Level Estimated
Sat 09:05:00 AM -27.5016 -62.3737 340° North  Level Estimated
Sat 09:06:00 AM -27.3775 -62.4232 340° North  Level Estimated
Sat 09:07:00 AM -27.2535 -62.4726 341° North  Level Estimated
Sat 09:08:00 AM -27.1294 -62.5218 341° North  Level Estimated
Sat 09:09:00 AM -27.0053 -62.5710 341° North  Level Estimated
Sat 09:10:00 AM -26.8811 -62.6201 341° North  Level Estimated
Sat 09:11:00 AM -26.7570 -62.6690 341° North  Level Estimated
Sat 09:12:00 AM -26.6328 -62.7179 341° North  Level Estimated
Sat 09:13:00 AM -26.5087 -62.7666 341° North  Level Estimated
Sat 09:14:00 AM -26.3845 -62.8153 341° North  Level Estimated
Sat 09:15:00 AM -26.2603 -62.8638 341° North  Level Estimated
Sat 09:16:00 AM -26.1360 -62.9123 341° North  Level Estimated
Sat 09:17:00 AM -26.0118 -62.9606 341° North  Level Estimated
Sat 09:18:00 AM -25.8875 -63.0088 341° North  Level Estimated
Sat 09:19:00 AM -25.7633 -63.0569 341° North  Level Estimated
Sat 09:20:00 AM -25.6390 -63.1050 341° North  Level Estimated
Sat 09:21:00 AM -25.5147 -63.1529 341° North  Level Estimated
Sat 09:22:00 AM -25.3904 -63.2007 341° North  Level Estimated
Sat 09:23:00 AM -25.2660 -63.2484 341° North  Level Estimated
Sat 09:24:00 AM -25.1417 -63.2961 341° North  Level Estimated
Sat 09:25:00 AM -25.0173 -63.3436 341° North  Level Estimated
Sat 09:26:00 AM -24.8929 -63.3910 341° North  Level Estimated
Sat 09:27:00 AM -24.7685 -63.4384 341° North  Level Estimated
Sat 09:28:00 AM -24.6441 -63.4856 341° North  Level Estimated
Sat 09:29:00 AM -24.5197 -63.5328 341° North  Level Estimated
Sat 09:30:00 AM -24.3952 -63.5798 341° North  Level Estimated
Sat 09:31:00 AM -24.2708 -63.6268 341° North  Level Estimated
Sat 09:32:00 AM -24.1463 -63.6737 341° North  Level Estimated
Sat 09:33:00 AM -24.0218 -63.7205 341° North  Level Estimated
Sat 09:34:00 AM -23.8973 -63.7672 341° North  Level Estimated
Sat 09:35:00 AM -23.7728 -63.8138 341° North  Level Estimated
Sat 09:36:00 AM -23.6483 -63.8603 341° North  Level Estimated
Sat 09:37:00 AM -23.5238 -63.9067 341° North  Level Estimated
Sat 09:38:00 AM -23.3992 -63.9530 341° North  Level Estimated
Sat 09:39:00 AM -23.2746 -63.9993 341° North  Level Estimated
Sat 09:40:00 AM -23.1501 -64.0454 341° North  Level Estimated
Sat 09:41:00 AM -23.0255 -64.0915 341° North  Level Estimated
Sat 09:42:00 AM -22.9009 -64.1375 341° North  Level Estimated
Sat 09:43:00 AM -22.7762 -64.1834 341° North  Level Estimated
Sat 09:43:40 AM -22.6932 -64.2140 341° North  Level Estimated
Sat 09:44:00 AM -22.6516 -64.2292 341° North  Level Estimated
Sat 09:45:00 AM -22.5270 -64.2750 341° North  Level Estimated
Sat 09:45:00 AM -22.5270 -64.2750 341° North  Level Estimated
Sat 09:46:00 AM -22.4023 -64.3206 341° North  Level Estimated
Sat 09:46:00 AM -22.4023 -64.3206 341° North  Level Estimated
Sat 09:47:00 AM -22.2776 -64.3662 341° North  Level Estimated
Sat 09:47:00 AM -22.2776 -64.3662 341° North  Level Estimated
Sat 09:48:00 AM -22.1530 -64.4117 341° North  Level Estimated
Sat 09:48:00 AM -22.1530 -64.4117 341° North  Level Estimated
Sat 09:49:00 AM -22.0283 -64.4571 341° North  Level Estimated
Sat 09:49:00 AM -22.0282 -64.4571 341° North  Level Estimated
Sat 09:50:00 AM -21.9035 -64.5025 341° North  Level Estimated
Sat 09:50:00 AM -21.9035 -64.5025 341° North  Level Estimated
Sat 09:51:00 AM -21.7788 -64.5477 341° North  Level Estimated
Sat 09:51:00 AM -21.7788 -64.5477 341° North  Level Estimated
Sat 09:52:00 AM -21.6541 -64.5929 341° North  Level Estimated
Sat 09:52:00 AM -21.6541 -64.5929 341° North  Level Estimated
Sat 09:53:00 AM -21.5293 -64.6380 341° North  Level Estimated
Sat 09:53:00 AM -21.5294 -64.6380 341° North  Level Estimated
Sat 09:54:00 AM -21.4046 -64.6830 341° North  Level Estimated
Sat 09:54:00 AM -21.4046 -64.6830 341° North  Level Estimated
Sat 09:55:00 AM -21.2798 -64.7280 341° North  Level Estimated
Sat 09:55:00 AM -21.2798 -64.7280 341° North  Level Estimated
Sat 09:56:00 AM -21.1550 -64.7729 341° North  Level Estimated
Sat 09:56:00 AM -21.1550 -64.7729 341° North  Level Estimated
Sat 09:57:00 AM -21.0302 -64.8176 341° North  Level Estimated
Sat 09:57:00 AM -21.0303 -64.8176 341° North  Level Estimated
Sat 09:58:00 AM -20.9054 -64.8624 341° North  Level Estimated
Sat 09:58:00 AM -20.9054 -64.8624 341° North  Level Estimated
Sat 09:59:00 AM -20.7806 -64.9070 342° North  Level Estimated
Sat 09:59:00 AM -20.7806 -64.9070 342° North  Level Estimated
Sat 10:00:00 AM -20.6558 -64.9516 342° North  Level Estimated
Sat 10:00:00 AM -20.6558 -64.9516 342° North  Level Estimated
Sat 10:01:00 AM -20.5309 -64.9961 342° North  Level Estimated
Sat 10:01:00 AM -20.5310 -64.9961 342° North  Level Estimated
Sat 10:02:00 AM -20.4061 -65.0405 342° North  Level Estimated
Sat 10:02:00 AM -20.4061 -65.0405 342° North  Level Estimated
Sat 10:03:00 AM -20.2812 -65.0848 342° North  Level Estimated
Sat 10:03:00 AM -20.2812 -65.0848 342° North  Level Estimated
Sat 10:04:00 AM -20.1564 -65.1291 342° North  Level Estimated
Sat 10:04:00 AM -20.1564 -65.1291 342° North  Level Estimated
Sat 10:05:00 AM -20.0315 -65.1733 342° North  Level Estimated
Sat 10:05:00 AM -20.0315 -65.1733 342° North  Level Estimated
Sat 10:06:00 AM -19.9066 -65.2175 342° North  Level Estimated
Sat 10:06:00 AM -19.9066 -65.2175 342° North  Level Estimated
Sat 10:07:00 AM -19.7817 -65.2616 342° North  Level Estimated
Sat 10:07:00 AM -19.7817 -65.2615 342° North  Level Estimated
Sat 10:08:00 AM -19.6567 -65.3055 342° North  Level Estimated
Sat 10:08:00 AM -19.6567 -65.3055 342° North  Level Estimated
Sat 10:09:00 AM -19.5318 -65.3495 342° North  Level Estimated
Sat 10:09:00 AM -19.5318 -65.3495 342° North  Level Estimated
Sat 10:10:00 AM -19.4069 -65.3933 342° North  Level Estimated
Sat 10:10:00 AM -19.4069 -65.3933 342° North  Level Estimated
Sat 10:11:00 AM -19.2819 -65.4371 342° North  Level Estimated
Sat 10:11:00 AM -19.2819 -65.4371 342° North  Level Estimated
Sat 10:12:00 AM -19.1570 -65.4809 342° North  Level Estimated
Sat 10:12:00 AM -19.1570 -65.4809 342° North  Level Estimated
Sat 10:13:00 AM -19.0320 -65.5245 342° North  Level Estimated
Sat 10:13:00 AM -19.0320 -65.5245 342° North  Level Estimated
Sat 10:14:00 AM -18.9070 -65.5681 342° North  Level Estimated
Sat 10:14:00 AM -18.9070 -65.5681 342° North  Level Estimated
Sat 10:15:00 AM -18.7820 -65.6117 342° North  Level Estimated
Sat 10:15:00 AM -18.7820 -65.6117 342° North  Level Estimated
Sat 10:16:00 AM -18.6570 -65.6551 342° North  Level Estimated
Sat 10:16:00 AM -18.6570 -65.6551 342° North  Level Estimated
Sat 10:17:00 AM -18.5320 -65.6985 342° North  Level Estimated
Sat 10:17:00 AM -18.5320 -65.6985 342° North  Level Estimated
Sat 10:18:00 AM -18.4070 -65.7419 342° North  Level Estimated
Sat 10:18:00 AM -18.4070 -65.7419 342° North  Level Estimated
Sat 10:19:00 AM -18.2820 -65.7852 342° North  Level Estimated
Sat 10:19:00 AM -18.2820 -65.7852 342° North  Level Estimated
Sat 10:20:00 AM -18.1569 -65.8284 342° North  Level Estimated
Sat 10:20:00 AM -18.1569 -65.8284 342° North  Level Estimated
Sat 10:21:00 AM -18.0319 -65.8715 342° North  Level Estimated
Sat 10:21:00 AM -18.0319 -65.8715 342° North  Level Estimated
Sat 10:22:00 AM -17.9068 -65.9146 342° North  Level Estimated
Sat 10:22:00 AM -17.9068 -65.9146 342° North  Level Estimated
Sat 10:23:00 AM -17.7817 -65.9577 342° North  Level Estimated
Sat 10:23:00 AM -17.7817 -65.9577 342° North  Level Estimated
Sat 10:24:00 AM -17.6567 -66.0006 342° North  Level Estimated
Sat 10:24:00 AM -17.6567 -66.0006 342° North  Level Estimated
Sat 10:25:00 AM -17.5316 -66.0435 342° North  Level Estimated
Sat 10:25:00 AM -17.5316 -66.0435 342° North  Level Estimated
Sat 10:26:00 AM -17.4065 -66.0864 342° North  Level Estimated
Sat 10:26:00 AM -17.4065 -66.0864 342° North  Level Estimated
Sat 10:27:00 AM -17.2814 -66.1292 342° North  Level Estimated
Sat 10:27:00 AM -17.2814 -66.1292 342° North  Level Estimated
Sat 10:28:00 AM -17.1562 -66.1719 342° North  Level Estimated
Sat 10:28:00 AM -17.1562 -66.1719 342° North  Level Estimated
Sat 10:29:00 AM -17.0311 -66.2146 342° North  Level Estimated
Sat 10:29:00 AM -17.0311 -66.2146 342° North  Level Estimated
Sat 10:30:00 AM -16.9060 -66.2572 342° North  Level Estimated
Sat 10:30:00 AM -16.9060 -66.2572 342° North  Level Estimated
Sat 10:31:00 AM -16.7809 -66.2998 342° North  Level Estimated
Sat 10:31:00 AM -16.7808 -66.2998 342° North  Level Estimated
Sat 10:32:00 AM -16.6557 -66.3423 342° North  Level Estimated
Sat 10:32:00 AM -16.6557 -66.3423 342° North  Level Estimated
Sat 10:33:00 AM -16.5306 -66.3848 342° North  Level Estimated
Sat 10:33:00 AM -16.5305 -66.3848 342° North  Level Estimated
Sat 10:34:00 AM -16.4054 -66.4272 342° North  Level Estimated
Sat 10:34:00 AM -16.4054 -66.4272 342° North  Level Estimated
Sat 10:35:00 AM -16.2802 -66.4695 342° North  Level Estimated
Sat 10:35:00 AM -16.2802 -66.4695 342° North  Level Estimated
Sat 10:36:00 AM -16.1550 -66.5118 342° North  Level Estimated
Sat 10:36:00 AM -16.1550 -66.5118 342° North  Level Estimated
Sat 10:37:00 AM -16.0298 -66.5540 342° North  Level Estimated
Sat 10:37:00 AM -16.0298 -66.5540 342° North  Level Estimated
Sat 10:38:00 AM -15.9046 -66.5962 342° North  Level Estimated
Sat 10:38:00 AM -15.9046 -66.5962 342° North  Level Estimated
Sat 10:39:00 AM -15.7794 -66.6383 342° North  Level Estimated
Sat 10:39:00 AM -15.7794 -66.6383 342° North  Level Estimated
Sat 10:40:00 AM -15.6542 -66.6804 342° North  Level Estimated
Sat 10:40:00 AM -15.6542 -66.6804 342° North  Level Estimated
Sat 10:41:00 AM -15.5290 -66.7225 342° North  Level Estimated
Sat 10:41:00 AM -15.5290 -66.7225 342° North  Level Estimated
Sat 10:42:00 AM -15.4037 -66.7644 342° North  Level Estimated
Sat 10:42:00 AM -15.4037 -66.7644 342° North  Level Estimated
Sat 10:43:00 AM -15.2785 -66.8064 342° North  Level Estimated
Sat 10:43:00 AM -15.2785 -66.8064 342° North  Level Estimated
Sat 10:44:00 AM -15.1532 -66.8482 342° North  Level Estimated
Sat 10:44:00 AM -15.1532 -66.8482 342° North  Level Estimated
Sat 10:45:00 AM -15.0280 -66.8901 342° North  Level Estimated
Sat 10:45:00 AM -15.0280 -66.8901 342° North  Level Estimated
Sat 10:46:00 AM -14.9027 -66.9318 342° North  Level Estimated
Sat 10:46:00 AM -14.9027 -66.9318 342° North  Level Estimated
Sat 10:47:00 AM -14.7775 -66.9736 342° North  Level Estimated
Sat 10:47:00 AM -14.7774 -66.9736 342° North  Level Estimated
Sat 10:48:00 AM -14.6522 -67.0153 342° North  Level Estimated
Sat 10:48:00 AM -14.6522 -67.0153 342° North  Level Estimated
Sat 10:49:00 AM -14.5269 -67.0569 342° North  Level Estimated
Sat 10:49:00 AM -14.5269 -67.0569 342° North  Level Estimated
Sat 10:50:00 AM -14.4016 -67.0985 342° North  Level Estimated
Sat 10:50:00 AM -14.4016 -67.0985 342° North  Level Estimated
Sat 10:51:00 AM -14.2763 -67.1400 342° North  Level Estimated
Sat 10:51:00 AM -14.2763 -67.1400 342° North  Level Estimated
Sat 10:52:00 AM -14.1510 -67.1815 342° North  Level Estimated
Sat 10:52:00 AM -14.1510 -67.1815 342° North  Level Estimated
Sat 10:53:00 AM -14.0257 -67.2230 342° North  Level Estimated
Sat 10:53:00 AM -14.0257 -67.2230 342° North  Level Estimated
Sat 10:54:00 AM -13.9003 -67.2644 342° North  Level Estimated
Sat 10:54:00 AM -13.9003 -67.2644 342° North  Level Estimated
Sat 10:55:00 AM -13.7750 -67.3057 342° North  Level Estimated
Sat 10:55:00 AM -13.7750 -67.3057 342° North  Level Estimated
Sat 10:56:00 AM -13.6497 -67.3470 342° North  Level Estimated
Sat 10:56:00 AM -13.6497 -67.3470 342° North  Level Estimated
Sat 10:57:00 AM -13.5243 -67.3883 342° North  Level Estimated
Sat 10:57:00 AM -13.5243 -67.3883 342° North  Level Estimated
Sat 10:58:00 AM -13.3990 -67.4295 342° North  Level Estimated
Sat 10:58:00 AM -13.3990 -67.4295 342° North  Level Estimated
Sat 10:59:00 AM -13.2736 -67.4707 342° North  Level Estimated
Sat 10:59:00 AM -13.2736 -67.4707 342° North  Level Estimated
Sat 11:00:00 AM -13.1483 -67.5118 342° North  Level Estimated
Sat 11:00:00 AM -13.1483 -67.5118 342° North  Level Estimated
Sat 11:01:00 AM -13.0229 -67.5529 342° North  Level Estimated
Sat 11:01:00 AM -13.0229 -67.5529 342° North  Level Estimated
Sat 11:02:00 AM -12.8975 -67.5940 342° North  Level Estimated
Sat 11:02:00 AM -12.8975 -67.5940 342° North  Level Estimated
Sat 11:03:00 AM -12.7721 -67.6350 342° North  Level Estimated
Sat 11:03:00 AM -12.7721 -67.6350 342° North  Level Estimated
Sat 11:04:00 AM -12.6467 -67.6760 342° North  Level Estimated
Sat 11:04:00 AM -12.6468 -67.6760 342° North  Level Estimated
Sat 11:05:00 AM -12.5213 -67.7169 342° North  Level Estimated
Sat 11:05:00 AM -12.5213 -67.7169 342° North  Level Estimated
Sat 11:06:00 AM -12.3959 -67.7579 342° North  Level Estimated
Sat 11:06:00 AM -12.3960 -67.7579 342° North  Level Estimated
Sat 11:07:00 AM -12.2705 -67.7987 342° North  Level Estimated
Sat 11:07:00 AM -12.2705 -67.7987 342° North  Level Estimated
Sat 11:08:00 AM -12.1451 -67.8395 342° North  Level Estimated
Sat 11:08:00 AM -12.1451 -67.8395 342° North  Level Estimated
Sat 11:09:00 AM -12.0197 -67.8803 342° North  Level Estimated
Sat 11:09:00 AM -12.0197 -67.8803 342° North  Level Estimated
Sat 11:10:00 AM -11.8943 -67.9211 342° North  Level Estimated
Sat 11:10:00 AM -11.8943 -67.9211 342° North  Level Estimated
Sat 11:11:00 AM -11.7689 -67.9617 342° North  Level Estimated
Sat 11:11:00 AM -11.7688 -67.9617 342° North  Level Estimated
Sat 11:12:00 AM -11.6434 -68.0024 342° North  Level Estimated
Sat 11:12:00 AM -11.6434 -68.0024 342° North  Level Estimated
Sat 11:13:00 AM -11.5180 -68.0431 342° North  Level Estimated
Sat 11:13:00 AM -11.5180 -68.0431 342° North  Level Estimated
Sat 11:14:00 AM -11.3925 -68.0836 342° North  Level Estimated
Sat 11:14:00 AM -11.3925 -68.0836 342° North  Level Estimated
Sat 11:15:00 AM -11.2671 -68.1242 342° North  Level Estimated
Sat 11:15:00 AM -11.2671 -68.1242 342° North  Level Estimated
Sat 11:16:00 AM -11.1416 -68.1647 342° North  Level Estimated
Sat 11:16:00 AM -11.1416 -68.1647 342° North  Level Estimated
Sat 11:17:00 AM -11.0161 -68.2052 342° North  Level Estimated
Sat 11:17:00 AM -11.0161 -68.2052 342° North  Level Estimated
Sat 11:18:00 AM -10.8907 -68.2457 342° North  Level Estimated
Sat 11:18:00 AM -10.8907 -68.2457 342° North  Level Estimated
Sat 11:19:00 AM -10.7652 -68.2861 342° North  Level Estimated
Sat 11:19:00 AM -10.7652 -68.2861 342° North  Level Estimated
Sat 11:20:00 AM -10.6397 -68.3265 342° North  Level Estimated
Sat 11:20:00 AM -10.6397 -68.3265 342° North  Level Estimated
Sat 11:21:00 AM -10.5142 -68.3668 342° North  Level Estimated
Sat 11:21:00 AM -10.5142 -68.3668 342° North  Level Estimated
Sat 11:22:00 AM -10.3887 -68.4071 342° North  Level Estimated
Sat 11:22:00 AM -10.3887 -68.4071 342° North  Level Estimated
Sat 11:23:00 AM -10.2632 -68.4474 342° North  Level Estimated
Sat 11:23:00 AM -10.2632 -68.4474 342° North  Level Estimated
Sat 11:24:00 AM -10.1377 -68.4877 342° North  Level Estimated
Sat 11:24:00 AM -10.1377 -68.4877 342° North  Level Estimated
Sat 11:25:00 AM -10.0122 -68.5279 342° North  Level Estimated
Sat 11:25:00 AM -10.0122 -68.5279 342° North  Level Estimated
Sat 11:26:00 AM -9.8867 -68.5681 342° North  Level Estimated
Sat 11:27:00 AM -9.7612 -68.6082 342° North  Level Estimated
Sat 11:28:00 AM -9.6357 -68.6484 343° North  Level Estimated
Sat 11:29:00 AM -9.5101 -68.6885 343° North  Level Estimated
Sat 11:30:00 AM -9.3846 -68.7285 343° North  Level Estimated
Sat 11:31:00 AM -9.2591 -68.7686 343° North  Level Estimated
Sat 11:32:00 AM -9.1335 -68.8086 343° North  Level Estimated
Sat 11:33:00 AM -9.0080 -68.8486 343° North  Level Estimated
Sat 11:34:00 AM -8.8825 -68.8885 343° North  Level Estimated
Sat 11:35:00 AM -8.7569 -68.9285 343° North  Level Estimated
Sat 11:36:00 AM -8.6313 -68.9684 343° North  Level Estimated
Sat 11:37:00 AM -8.5058 -69.0082 343° North  Level Estimated
Sat 11:38:00 AM -8.3802 -69.0481 343° North  Level Estimated
Sat 11:39:00 AM -8.2547 -69.0879 343° North  Level Estimated
Sat 11:40:00 AM -8.1291 -69.1277 343° North  Level Estimated
Sat 11:41:00 AM -8.0035 -69.1675 343° North  Level Estimated
Sat 11:42:00 AM -7.8779 -69.2073 343° North  Level Estimated
Sat 11:43:00 AM -7.7523 -69.2470 343° North  Level Estimated
Sat 11:44:00 AM -7.6267 -69.2867 343° North  Level Estimated
Sat 11:45:00 AM -7.5012 -69.3264 343° North  Level Estimated
Sat 11:46:00 AM -7.3756 -69.3660 343° North  Level Estimated
Sat 11:47:00 AM -7.2500 -69.4057 343° North  Level Estimated
Sat 11:48:00 AM -7.1244 -69.4453 343° North  Level Estimated
Sat 11:49:00 AM -6.9988 -69.4849 343° North  Level Estimated
Sat 11:50:00 AM -6.8732 -69.5244 343° North  Level Estimated
Sat 11:51:00 AM -6.7476 -69.5640 343° North  Level Estimated
Sat 11:52:00 AM -6.6219 -69.6035 343° North  Level Estimated
Sat 11:53:00 AM -6.4963 -69.6430 343° North  Level Estimated
Sat 11:54:00 AM -6.3707 -69.6825 343° North  Level Estimated
Sat 11:55:00 AM -6.2451 -69.7220 343° North  Level Estimated
Sat 11:56:00 AM -6.1195 -69.7614 343° North  Level Estimated
Sat 11:57:00 AM -5.9938 -69.8009 343° North  Level Estimated
Sat 11:58:00 AM -5.8682 -69.8403 343° North  Level Estimated
Sat 11:59:00 AM -5.7426 -69.8797 343° North  Level Estimated
Sat 12:00:00 PM -5.6169 -69.9191 343° North  Level Estimated
Sat 12:01:00 PM -5.4913 -69.9584 343° North  Level Estimated
Sat 12:02:00 PM -5.3656 -69.9977 343° North  Level Estimated
Sat 12:03:00 PM -5.2400 -70.0371 343° North  Level Estimated
Sat 12:04:00 PM -5.1143 -70.0764 343° North  Level Estimated
Sat 12:05:00 PM -4.9887 -70.1157 343° North  Level Estimated
Sat 12:06:00 PM -4.8630 -70.1550 343° North  Level Estimated
Sat 12:07:00 PM -4.7374 -70.1942 343° North  Level Estimated
Sat 12:08:00 PM -4.6117 -70.2335 343° North  Level Estimated
Sat 12:09:00 PM -4.4861 -70.2727 343° North  Level Estimated
Sat 12:10:00 PM -4.3604 -70.3120 343° North  Level Estimated
Sat 12:11:00 PM -4.2347 -70.3512 343° North  Level Estimated
Sat 12:12:00 PM -4.1091 -70.3904 343° North  Level Estimated
Sat 12:13:00 PM -3.9834 -70.4296 343° North  Level Estimated
Sat 12:14:00 PM -3.8577 -70.4687 343° North  Level Estimated
Sat 12:15:00 PM -3.7321 -70.5079 343° North  Level Estimated
Sat 12:16:00 PM -3.6064 -70.5471 343° North  Level Estimated
Sat 12:17:00 PM -3.4807 -70.5862 343° North  Level Estimated
Sat 12:18:00 PM -3.3551 -70.6253 343° North  Level Estimated
Sat 12:19:00 PM -3.2294 -70.6644 343° North  Level Estimated
Sat 12:20:00 PM -3.1037 -70.7036 343° North  Level Estimated
Sat 12:21:00 PM -2.9780 -70.7427 343° North  Level Estimated
Sat 12:22:00 PM -2.8523 -70.7817 343° North  Level Estimated
Sat 12:23:00 PM -2.7266 -70.8208 343° North  Level Estimated
Sat 12:24:00 PM -2.6010 -70.8599 343° North  Level Estimated
Sat 12:25:00 PM -2.4753 -70.8990 343° North  Level Estimated
Sat 12:26:00 PM -2.3496 -70.9380 343° North  Level Estimated
Sat 12:27:00 PM -2.2239 -70.9771 343° North  Level Estimated
Sat 12:28:00 PM -2.0982 -71.0161 343° North  Level Estimated
Sat 12:29:00 PM -1.9725 -71.0552 343° North  Level Estimated
Sat 12:30:00 PM -1.8468 -71.0942 343° North  Level Estimated
Sat 12:31:00 PM -1.7211 -71.1332 343° North  Level Estimated
Sat 12:32:00 PM -1.5955 -71.1723 343° North  Level Estimated
Sat 12:33:00 PM -1.4698 -71.2113 343° North  Level Estimated
Sat 12:34:00 PM -1.3441 -71.2503 343° North  Level Estimated
Sat 12:35:00 PM -1.2184 -71.2893 343° North  Level Estimated
Sat 12:36:00 PM -1.0927 -71.3283 343° North  Level Estimated
Sat 12:37:00 PM -0.9670 -71.3673 343° North  Level Estimated
Sat 12:38:00 PM -0.8413 -71.4063 343° North  Level Estimated
Sat 12:39:00 PM -0.7156 -71.4453 343° North  Level Estimated
Sat 12:40:00 PM -0.5899 -71.4843 343° North  Level Estimated
Sat 12:41:00 PM -0.4642 -71.5233 343° North  Level Estimated
Sat 12:42:00 PM -0.3385 -71.5623 343° North  Level Estimated
Sat 12:43:00 PM -0.2128 -71.6013 343° North  Level Estimated
Sat 12:44:00 PM -0.0871 -71.6403 343° North  Level Estimated
Sat 12:45:00 PM 0.0386 -71.6793 343° North  Level Estimated
Sat 12:46:00 PM 0.1643 -71.7183 343° North  Level Estimated
Sat 12:47:00 PM 0.2900 -71.7573 343° North  Level Estimated
Sat 12:48:00 PM 0.4157 -71.7962 343° North  Level Estimated
Sat 12:49:00 PM 0.5414 -71.8353 343° North  Level Estimated
Sat 12:50:00 PM 0.6671 -71.8743 343° North  Level Estimated
Sat 12:51:00 PM 0.7928 -71.9133 343° North  Level Estimated
Sat 12:52:00 PM 0.9185 -71.9522 343° North  Level Estimated
Sat 12:53:00 PM 1.0442 -71.9912 343° North  Level Estimated
Sat 12:54:00 PM 1.1699 -72.0303 343° North  Level Estimated
Sat 12:55:00 PM 1.2956 -72.0693 343° North  Level Estimated
Sat 12:56:00 PM 1.4213 -72.1083 343° North  Level Estimated
Sat 12:57:00 PM 1.5470 -72.1473 343° North  Level Estimated
Sat 12:58:00 PM 1.6727 -72.1863 343° North  Level Estimated
Sat 12:59:00 PM 1.7984 -72.2253 343° North  Level Estimated
Sat 01:00:00 PM 1.9240 -72.2644 343° North  Level Estimated
Sat 01:01:00 PM 2.0497 -72.3034 343° North  Level Estimated
Sat 01:02:00 PM 2.1754 -72.3425 343° North  Level Estimated
Sat 01:03:00 PM 2.3011 -72.3815 343° North  Level Estimated
Sat 01:04:00 PM 2.4268 -72.4206 343° North  Level Estimated
Sat 01:05:00 PM 2.5525 -72.4596 343° North  Level Estimated
Sat 01:06:00 PM 2.6782 -72.4987 343° North  Level Estimated
Sat 01:07:00 PM 2.8039 -72.5378 343° North  Level Estimated
Sat 01:08:00 PM 2.9295 -72.5769 343° North  Level Estimated
Sat 01:09:00 PM 3.0552 -72.6160 343° North  Level Estimated
Sat 01:10:00 PM 3.1809 -72.6551 343° North  Level Estimated
Sat 01:11:00 PM 3.3066 -72.6942 343° North  Level Estimated
Sat 01:12:00 PM 3.4323 -72.7334 343° North  Level Estimated
Sat 01:13:00 PM 3.5579 -72.7725 343° North  Level Estimated
Sat 01:14:00 PM 3.6836 -72.8116 343° North  Level Estimated
Sat 01:15:00 PM 3.8093 -72.8508 343° North  Level Estimated
Sat 01:16:00 PM 3.9349 -72.8900 343° North  Level Estimated
Sat 01:16:20 PM 4.3280 -73.1050 343° North 505 581 38,000  Level FlightAware ADS-B
Sat 01:17:00 PM 4.4170 -73.1280 346° North 504 580 38,000  Level FlightAware ADS-B
Sat 01:17:00 PM 4.0606 -72.9292 343° North  Level Estimated
Sat 01:17:40 PM 4.5070 -73.1510 346° North 505 581 38,000  Level FlightAware ADS-B
Sat 01:18:28 PM 4.6180 -73.1790 346° North 504 580 38,000  Level FlightAware ADS-B
Sat 01:19:08 PM 4.7090 -73.2030 345° North 503 579 38,000  Level FlightAware ADS-B
Sat 01:19:48 PM 4.7990 -73.2260 346° North 502 578 38,000  Level FlightAware ADS-B
Sat 01:20:28 PM 4.8880 -73.2490 346° North 501 577 38,000  Level FlightAware ADS-B
Sat 01:21:06 PM 4.9740 -73.2720 345° North 500 575 38,000  Level FlightAware ADS-B
Sat 01:21:44 PM 5.0610 -73.2940 346° North 499 574 38,000  Level FlightAware ADS-B
Sat 01:22:28 PM 5.1580 -73.3190 346° North 498 573 38,000  Level FlightAware ADS-B
Sat 01:23:14 PM 5.2610 -73.3460 345° North 497 572 38,000  Level FlightAware ADS-B
Sat 01:23:54 PM 5.3500 -73.3690 346° North 496 571 38,000  Level FlightAware ADS-B
Sat 01:24:38 PM 5.4480 -73.3940 346° North 499 574 38,000  Level FlightAware ADS-B
Sat 01:25:19 PM 5.5380 -73.4180 345° North 497 572 38,000  Level FlightAware ADS-B
Sat 01:25:54 PM 5.6200 -73.4390 346° North 497 572 38,000  Level FlightAware ADS-B
Sat 01:26:34 PM 5.7070 -73.4610 346° North 490 564 38,000  Level FlightAware ADS-B
Sat 01:27:16 PM 5.8010 -73.4860 345° North 493 567 38,000  Level FlightAware ADS-B
Sat 01:27:52 PM 5.8820 -73.5070 346° North 498 573 38,000  Level FlightAware ADS-B
Sat 01:28:36 PM 5.9790 -73.5320 346° North 495 570 38,000  Level FlightAware ADS-B
Sat 01:29:12 PM 6.0600 -73.5530 346° North 494 568 38,000  Level FlightAware ADS-B
Sat 01:29:54 PM 6.1500 -73.5760 346° North 488 562 38,000  Level FlightAware ADS-B
Sat 01:30:08 PM 6.1790 -73.5830 347° North 487 560 38,000  Level FlightAware ADS-B
Sat 01:31:50 PM 6.4070 -73.6420 346° North 481 554 38,000  Level FlightAware ADS-B
Sat 01:32:36 PM 6.5060 -73.6680 345° North 481 554 38,000  Level FlightAware ADS-B
Sat 01:33:20 PM 6.6010 -73.6930 345° North 483 556 38,000  Level FlightAware ADS-B
Sat 01:34:00 PM 6.6890 -73.7160 345° North 482 555 38,000  Level FlightAware ADS-B
Sat 01:34:42 PM 6.7790 -73.7390 346° North 479 551 38,000  Level FlightAware ADS-B
Sat 01:35:24 PM 6.8690 -73.7620 346° North 479 551 38,000  Level FlightAware ADS-B
Sat 01:36:35 PM 7.0240 -73.8030 345° North 480 552 38,000  Level FlightAware ADS-B
Sat 01:37:46 PM 7.1480 -73.8360 345° North 482 555 38,000  Level FlightAware ADS-B
Sat 01:38:21 PM 7.2440 -73.8630 344° North 484 557 38,000  Level FlightAware ADS-B
Sat 01:39:01 PM 7.3270 -73.8860 345° North 484 557 38,000  Level FlightAware ADS-B
Sat 01:39:51 PM 7.4420 -73.9180 345° North 481 554 38,000  Level FlightAware ADS-B
Sat 01:40:41 PM 7.5510 -73.9480 345° North 478 550 38,000  Level FlightAware ADS-B
Sat 01:41:16 PM 7.6250 -73.9680 345° North 477 549 38,000  Level FlightAware ADS-B
Sat 01:42:05 PM 7.7330 -73.9990 344° North 476 548 38,000  Level FlightAware ADS-B
Sat 01:42:41 PM 7.8080 -74.0190 345° North 476 548 38,000  Level FlightAware ADS-B
Sat 01:43:21 PM 7.8940 -74.0430 345° North 475 547 38,000  Level FlightAware ADS-B
Sat 01:44:01 PM 7.9770 -74.0660 345° North 476 548 38,000  Level FlightAware ADS-B
Sat 01:44:36 PM 8.0520 -74.0870 345° North 477 549 38,000  Level FlightAware ADS-B
Sat 01:46:16 PM 8.2600 -74.1460 344° North 479 551 38,000  Level FlightAware ADS-B
Sat 01:46:51 PM 8.3400 -74.1680 345° North 478 550 38,000  Level FlightAware ADS-B
Sat 01:47:36 PM 8.4360 -74.1950 344° North 481 554 38,000  Level FlightAware ADS-B
Sat 01:48:20 PM 8.5350 -74.2230 344° North 479 551 38,000  Level FlightAware ADS-B
Sat 01:49:06 PM 8.6320 -74.2500 345° North 477 549 38,000  Level FlightAware ADS-B
Sat 01:49:36 PM 8.6930 -74.2680 344° North 476 548 38,000  Level FlightAware ADS-B
Sat 01:50:16 PM 8.7800 -74.2920 345° North 476 548 38,000  Level FlightAware ADS-B
Sat 01:50:56 PM 8.8650 -74.3160 344° North 476 548 38,000  Level FlightAware ADS-B
Sat 01:51:40 PM 8.9540 -74.3410 344° North 477 549 38,000  Level FlightAware ADS-B
Sat 01:52:26 PM 9.0470 -74.3670 345° North 477 549 38,000  Level FlightAware ADS-B
Sat 01:53:11 PM 9.1520 -74.3970 344° North 479 551 38,000  Level FlightAware ADS-B
Sat 01:53:51 PM 9.2380 -74.4210 345° North 479 551 38,000  Level FlightAware ADS-B
Sat 01:54:31 PM 9.3240 -74.4450 345° North 480 552 38,000  Level FlightAware ADS-B
Sat 01:55:16 PM 9.4200 -74.4720 344° North 481 554 38,000  Level FlightAware ADS-B
Sat 01:55:56 PM 9.5030 -74.4950 345° North 483 556 38,000  Level FlightAware ADS-B
Sat 01:56:31 PM 9.5820 -74.5180 344° North 483 556 38,000  Level FlightAware ADS-B
Sat 01:57:16 PM 9.6770 -74.5450 344° North 484 557 38,000  Level FlightAware ADS-B
Sat 01:57:56 PM 9.7650 -74.5690 345° North 483 556 38,000  Level FlightAware ADS-B
Sat 01:58:36 PM 9.8510 -74.5930 345° North 481 554 38,000  Level FlightAware ADS-B
Sat 01:59:21 PM 9.9480 -74.6210 344° North 480 552 38,000  Level FlightAware ADS-B
Sat 02:00:01 PM 10.0340 -74.6450 345° North 478 550 38,000  Level FlightAware ADS-B
Sat 02:00:41 PM 10.1170 -74.6690 344° North 477 549 38,000  Level FlightAware ADS-B
Sat 02:01:26 PM 10.2130 -74.6960 345° North 478 550 38,000  Level FlightAware ADS-B
Sat 02:02:16 PM 10.3140 -74.7250 344° North 478 550 38,000  Level FlightAware ADS-B
Sat 02:03:16 PM 10.4500 -74.7630 345° North 479 551 38,000  Level FlightAware ADS-B
Sat 02:04:01 PM 10.5420 -74.7890 344° North 479 551 38,000  Level FlightAware ADS-B
Sat 02:04:41 PM 10.6320 -74.8150 344° North 478 550 38,000  Level FlightAware ADS-B
Sat 02:05:21 PM 10.7150 -74.8380 345° North 478 550 38,000  Level FlightAware ADS-B
Sat 02:06:06 PM 10.8130 -74.8660 344° North 477 549 38,000  Level FlightAware ADS-B
Sat 02:06:46 PM 10.8940 -74.8870 346° North 476 548 38,000  Level FlightAware ADS-B
Sat 02:07:43 PM 11.0150 -74.9180 346° North 474 545 38,000  Level FlightAware ADS-B
Sat 02:08:41 PM 11.1340 -74.9480 346° North 476 548 38,000  Level FlightAware ADS-B
Sat 02:09:21 PM 11.2290 -74.9740 345° North 479 551 38,000  Level FlightAware ADS-B
Sat 02:10:16 PM 11.3490 -75.0050 346° North 479 551 38,000  Level FlightAware ADS-B
Sat 02:10:51 PM 11.4250 -75.0250 346° North 478 550 38,000  Level FlightAware ADS-B
Sat 02:12:01 PM 11.5580 -75.0590 346° North 479 551 38,000  Level FlightAware ADS-B
Sat 02:12:36 PM 11.6510 -75.0840 345° North 480 552 38,000  Level FlightAware ADS-B
Sat 02:13:16 PM 11.7370 -75.1060 346° North 479 551 38,000  Level FlightAware ADS-B
Sat 02:14:01 PM 11.8290 -75.1300 346° North 478 550 38,000  Level FlightAware ADS-B
Sat 02:14:41 PM 11.9020 -75.1490 346° North 478 550 38,000  Level FlightAware ADS-B
Sat 02:14:53 PM 11.9240 -75.1540 347° North 478 550 38,000  Level FlightAware ADS-B
Sat 02:16:10 PM 12.0640 -75.1900 346° North 478 550 38,000  Level FlightAware ADS-B
Sat 02:16:59 PM 12.1540 -75.2130 346° North 478 550 38,000  Level FlightAware ADS-B
Sat 02:17:35 PM 12.2190 -75.2300 346° North 478 550 38,000  Level FlightAware ADS-B
Sat 02:18:23 PM 12.3070 -75.2520 346° North 478 550 38,000  Level FlightAware ADS-B
Sat 02:19:00 PM 12.3740 -75.2690 346° North 478 550 38,000  Level FlightAware ADS-B
Sat 02:19:37 PM 12.4420 -75.2870 346° North 478 550 38,000  Level FlightAware ADS-B
Sat 02:20:27 PM 12.5330 -75.3100 346° North 478 550 38,000  Level FlightAware ADS-B
Sat 02:21:03 PM 12.5990 -75.3270 346° North 478 550 38,000  Level FlightAware ADS-B
Sat 02:22:05 PM 12.7120 -75.3550 346° North 478 550 38,000  Level FlightAware ADS-B
Sat 02:22:41 PM 12.7770 -75.3720 346° North 478 550 38,000  Level FlightAware ADS-B
Sat 02:23:28 PM 12.8630 -75.3940 346° North 478 550 38,000  Level FlightAware ADS-B
Sat 02:26:00 PM 13.1784 -75.5049 341° North  Level Estimated
Sat 02:27:00 PM 13.3029 -75.5487 341° North  Level Estimated
Sat 02:28:00 PM 13.4274 -75.5926 341° North  Level Estimated
Sat 02:29:00 PM 13.5519 -75.6366 341° North  Level Estimated
Sat 02:30:00 PM 13.6763 -75.6805 341° North  Level Estimated
Sat 02:31:00 PM 13.8008 -75.7246 341° North  Level Estimated
Sat 02:32:00 PM 13.9253 -75.7686 341° North  Level Estimated
Sat 02:33:00 PM 14.0497 -75.8128 341° North  Level Estimated
Sat 02:34:00 PM 14.1742 -75.8569 341° North  Level Estimated
Sat 02:35:00 PM 14.2986 -75.9012 341° North  Level Estimated
Sat 02:36:00 PM 14.4230 -75.9454 341° North  Level Estimated
Sat 02:37:00 PM 14.5474 -75.9898 341° North  Level Estimated
Sat 02:38:00 PM 14.6718 -76.0341 341° North  Level Estimated
Sat 02:39:00 PM 14.7962 -76.0785 341° North  Level Estimated
Sat 02:40:00 PM 14.9206 -76.1230 341° North  Level Estimated
Sat 02:41:00 PM 15.0450 -76.1675 341° North  Level Estimated
Sat 02:42:00 PM 15.1694 -76.2121 341° North  Level Estimated
Sat 02:43:00 PM 15.2937 -76.2567 341° North  Level Estimated
Sat 02:44:00 PM 15.4181 -76.3014 341° North  Level Estimated
Sat 02:45:00 PM 15.5424 -76.3461 341° North  Level Estimated
Sat 02:46:00 PM 15.6668 -76.3909 341° North  Level Estimated
Sat 02:47:00 PM 15.7911 -76.4358 341° North  Level Estimated
Sat 02:48:00 PM 15.9154 -76.4807 341° North  Level Estimated
Sat 02:49:00 PM 16.0397 -76.5256 341° North  Level Estimated
Sat 02:50:00 PM 16.1640 -76.5706 341° North  Level Estimated
Sat 02:51:00 PM 16.2883 -76.6157 341° North  Level Estimated
Sat 02:52:00 PM 16.4126 -76.6608 341° North  Level Estimated
Sat 02:53:00 PM 16.5369 -76.7060 341° North  Level Estimated
Sat 02:54:00 PM 16.6611 -76.7512 341° North  Level Estimated
Sat 02:55:00 PM 16.7854 -76.7965 341° North  Level Estimated
Sat 02:56:00 PM 16.9096 -76.8419 341° North  Level Estimated
Sat 02:57:00 PM 17.0338 -76.8873 341° North  Level Estimated
Sat 02:58:00 PM 17.1581 -76.9328 341° North  Level Estimated
Sat 02:59:00 PM 17.2823 -76.9783 341° North  Level Estimated
Sat 03:00:00 PM 17.4065 -77.0239 341° North  Level Estimated
Sat 03:01:00 PM 17.5307 -77.0696 341° North  Level Estimated
Sat 03:02:00 PM 17.6549 -77.1153 341° North  Level Estimated
Sat 03:03:00 PM 17.7790 -77.1611 341° North  Level Estimated
Sat 03:04:00 PM 17.9032 -77.2069 341° North  Level Estimated
Sat 03:05:00 PM 18.0273 -77.2528 341° North  Level Estimated
Sat 03:06:00 PM 18.1515 -77.2988 341° North  Level Estimated
Sat 03:07:00 PM 18.2756 -77.3449 341° North  Level Estimated
Sat 03:08:00 PM 18.3997 -77.3910 341° North  Level Estimated
Sat 03:09:00 PM 18.5238 -77.4371 341° North  Level Estimated
Sat 03:10:00 PM 18.6479 -77.4834 341° North  Level Estimated
Sat 03:11:00 PM 18.7720 -77.5297 341° North  Level Estimated
Sat 03:12:00 PM 18.8961 -77.5761 341° North  Level Estimated
Sat 03:13:00 PM 19.0201 -77.6225 341° North  Level Estimated
Sat 03:14:00 PM 19.1442 -77.6691 340° North  Level Estimated
Sat 03:15:00 PM 19.2682 -77.7156 340° North  Level Estimated
Sat 03:16:00 PM 19.3922 -77.7623 340° North  Level Estimated
Sat 03:17:00 PM 19.5162 -77.8090 340° North  Level Estimated
Sat 03:18:00 PM 19.6402 -77.8558 340° North  Level Estimated
Sat 03:19:00 PM 19.7642 -77.9027 340° North  Level Estimated
Sat 03:20:00 PM 19.8882 -77.9497 340° North  Level Estimated
Sat 03:21:00 PM 20.0122 -77.9967 340° North  Level Estimated
Sat 03:22:00 PM 20.1361 -78.0438 340° North  Level Estimated
Sat 03:23:00 PM 20.2601 -78.0909 340° North  Level Estimated
Sat 03:24:00 PM 20.3840 -78.1382 340° North  Level Estimated
Sat 03:25:00 PM 20.5079 -78.1855 340° North  Level Estimated
Sat 03:26:00 PM 20.6318 -78.2329 340° North  Level Estimated
Sat 03:27:00 PM 20.7557 -78.2804 340° North  Level Estimated
Sat 03:28:00 PM 20.8796 -78.3279 340° North  Level Estimated
Sat 03:29:00 PM 21.0034 -78.3755 340° North  Level Estimated
Sat 03:30:00 PM 21.1273 -78.4232 340° North  Level Estimated
Sat 03:31:00 PM 21.2511 -78.4710 340° North  Level Estimated
Sat 03:32:00 PM 21.3749 -78.5189 340° North  Level Estimated
Sat 03:33:00 PM 21.4987 -78.5669 340° North  Level Estimated
Sat 03:34:00 PM 21.6225 -78.6149 340° North  Level Estimated
Sat 03:35:00 PM 21.7463 -78.6630 340° North  Level Estimated
Sat 03:36:00 PM 21.8701 -78.7112 340° North  Level Estimated
Sat 03:37:00 PM 21.9938 -78.7595 340° North  Level Estimated
Sat 03:38:00 PM 22.1176 -78.8078 340° North  Level Estimated
Sat 03:39:00 PM 22.2413 -78.8563 340° North  Level Estimated
Sat 03:40:00 PM 22.3650 -78.9048 340° North  Level Estimated
Sat 03:41:00 PM 22.4875 -78.9530 340° North  Level Estimated
Sat 03:42:00 PM 22.6099 -79.0012 340° North  Level Estimated

Login

Don't have an account? Register now (free) for customized features, flight alerts, and more!